createdAt,value
2023-01-04T00:03:58.818Z,82.35
2023-01-04T00:08:03.355Z,82.38
2023-01-04T00:12:06.886Z,81.91
2023-01-04T00:16:13.476Z,81.80
2023-01-04T00:20:17.702Z,81.67
2023-01-04T00:24:22.352Z,81.81
2023-01-04T00:28:25.433Z,81.93
2023-01-04T00:32:28.460Z,81.95
2023-01-04T00:36:32.336Z,82.12
2023-01-04T00:40:37.045Z,81.67
2023-01-04T00:44:40.160Z,81.26
2023-01-04T00:48:47.694Z,81.27
2023-01-04T00:52:51.989Z,81.58
2023-01-04T00:56:56.474Z,81.88
2023-01-04T01:01:06.148Z,81.84
2023-01-04T01:05:09.604Z,81.90
2023-01-04T01:09:13.166Z,82.21
2023-01-04T01:13:17.665Z,82.36
2023-01-04T01:17:21.103Z,82.46
2023-01-04T01:21:27.172Z,82.33
2023-01-04T01:25:30.389Z,82.13
2023-01-04T01:29:34.984Z,82.00
2023-01-04T01:33:38.140Z,82.15
2023-01-04T01:37:41.316Z,82.17
2023-01-04T01:41:44.349Z,82.05
2023-01-04T01:45:53.256Z,82.00
2023-01-04T01:49:56.658Z,81.75
2023-01-04T01:54:05.656Z,81.88
2023-01-04T01:58:12.385Z,82.00
2023-01-04T02:02:16.892Z,81.99
2023-01-04T02:06:26.569Z,81.87
2023-01-04T02:10:29.762Z,81.92
2023-01-04T02:14:32.809Z,81.66
2023-01-04T02:18:45.277Z,82.07
2023-01-04T02:23:27.507Z,82.27
2023-01-04T02:27:45.621Z,82.44
2023-01-04T02:31:55.243Z,82.07
2023-01-04T02:36:08.294Z,82.09
2023-01-04T02:40:19.935Z,82.31
2023-01-04T02:44:47.376Z,82.13
2023-01-04T02:49:09.432Z,81.84
2023-01-04T02:53:16.240Z,81.42
2023-01-04T02:57:33.133Z,81.44
2023-01-04T03:02:03.570Z,81.10
2023-01-04T03:06:17.002Z,80.89
2023-01-04T03:10:26.710Z,80.55
2023-01-04T03:14:36.753Z,80.30
2023-01-04T03:18:45.648Z,80.31
2023-01-04T03:23:12.015Z,80.38
2023-01-04T03:27:32.276Z,80.86
2023-01-04T03:31:56.756Z,80.70
2023-01-04T03:36:11.669Z,80.90
2023-01-04T03:40:41.876Z,81.07
2023-01-04T03:45:11.661Z,81.28
2023-01-04T03:53:54.735Z,81.61
2023-01-04T03:58:00.383Z,81.57
2023-01-04T04:02:04.195Z,82.33
2023-01-04T04:06:27.820Z,82.69
2023-01-04T04:10:30.879Z,83.11
2023-01-04T04:14:35.525Z,83.04
2023-01-04T04:18:38.580Z,83.10
2023-01-04T04:22:42.314Z,83.44
2023-01-04T04:26:45.735Z,83.24
2023-01-04T04:30:52.522Z,83.50
2023-01-04T04:34:55.697Z,83.45
2023-01-04T04:38:58.795Z,83.28
2023-01-04T04:43:01.886Z,83.13
2023-01-04T04:47:06.336Z,82.95
2023-01-04T04:51:09.382Z,82.57
2023-01-04T04:55:12.681Z,82.20
2023-01-04T04:59:16.821Z,82.43
2023-01-04T05:03:21.329Z,82.37
2023-01-04T05:07:24.406Z,82.20
2023-01-04T05:11:41.526Z,81.94
2023-01-04T05:15:46.037Z,81.81
2023-01-04T05:19:50.467Z,81.79
2023-01-04T05:23:53.548Z,81.68
2023-01-04T05:27:57.735Z,81.64
2023-01-04T05:32:00.823Z,81.56
2023-01-04T05:36:05.790Z,81.34
2023-01-04T05:40:09.595Z,81.31
2023-01-04T05:44:12.603Z,81.07
2023-01-04T05:48:15.671Z,81.10
2023-01-04T05:52:20.564Z,81.07
2023-01-04T05:56:23.604Z,81.06
2023-01-04T06:00:26.897Z,81.19
2023-01-04T06:04:30.247Z,81.08
2023-01-04T06:08:35.052Z,80.98
2023-01-04T06:12:38.538Z,80.90
2023-01-04T06:16:41.676Z,80.99
2023-01-04T06:20:44.848Z,81.29
2023-01-04T06:24:49.342Z,81.31
2023-01-04T06:28:52.395Z,80.95
2023-01-04T06:32:55.788Z,81.22
2023-01-04T06:36:58.959Z,81.52
2023-01-04T06:41:03.699Z,82.69
2023-01-04T06:45:07.807Z,82.46
2023-01-04T06:49:11.097Z,81.81
2023-01-04T06:53:14.230Z,81.62
2023-01-04T06:57:18.643Z,81.73
2023-01-04T07:01:21.857Z,81.47
2023-01-04T07:05:24.982Z,81.40
2023-01-04T07:09:28.014Z,81.34
2023-01-04T07:13:32.481Z,81.55
2023-01-04T07:17:35.855Z,81.35
2023-01-04T07:21:38.926Z,81.31
2023-01-04T07:25:42.011Z,81.48
2023-01-04T07:29:46.983Z,81.65
2023-01-04T07:33:51.808Z,81.94
2023-01-04T07:37:58.593Z,82.15
2023-01-04T07:42:02.094Z,82.21
2023-01-04T07:46:07.788Z,82.59
2023-01-04T07:50:11.272Z,82.68
2023-01-04T07:54:14.878Z,82.53
2023-01-04T07:58:17.889Z,82.51
2023-01-04T08:02:22.466Z,82.59
2023-01-04T08:06:25.728Z,82.41
2023-01-04T08:10:28.772Z,82.59
2023-01-04T08:14:31.804Z,82.63
2023-01-04T08:18:36.294Z,82.44
2023-01-04T08:22:39.307Z,82.68
2023-01-04T08:26:42.447Z,83.20
2023-01-04T08:30:45.842Z,83.16
2023-01-04T08:34:50.259Z,83.40
2023-01-04T08:39:00.893Z,83.43
2023-01-04T08:43:04.799Z,83.61
2023-01-04T08:47:07.899Z,83.27
2023-01-04T08:51:15.062Z,82.97
2023-01-04T08:55:23.153Z,83.23
2023-01-04T08:59:26.623Z,83.62
2023-01-04T09:03:29.705Z,83.86
2023-01-04T09:07:34.379Z,84.02
2023-01-04T09:11:39.741Z,83.87
2023-01-04T09:15:43.021Z,84.24
2023-01-04T09:19:46.055Z,84.30
2023-01-04T09:23:50.676Z,84.37
2023-01-04T09:27:53.806Z,84.52
2023-01-04T09:31:57.100Z,84.14
2023-01-04T09:36:02.634Z,84.17
2023-01-04T09:40:08.752Z,84.39
2023-01-04T09:44:19.977Z,85.23
2023-01-04T09:48:28.196Z,85.86
2023-01-04T09:52:45.101Z,86.15
2023-01-04T09:56:53.982Z,86.42
2023-01-04T10:01:03.030Z,86.66
2023-01-04T10:05:08.136Z,86.71
2023-01-04T10:09:15.181Z,87.34
2023-01-04T10:13:32.649Z,87.26
2023-01-04T10:22:19.446Z,87.80
2023-01-04T10:26:26.709Z,87.89
2023-01-04T10:30:40.256Z,88.06
2023-01-04T10:34:44.934Z,87.86
2023-01-04T10:38:51.725Z,88.04
2023-01-04T10:43:01.241Z,88.34
2023-01-04T10:47:12.488Z,88.47
2023-01-04T10:51:19.435Z,88.67
2023-01-04T10:55:28.659Z,89.13
2023-01-04T10:59:39.810Z,89.32
2023-01-04T11:03:51.867Z,89.47
2023-01-04T11:08:00.532Z,89.28
2023-01-04T11:12:04.072Z,89.17
2023-01-04T11:16:08.791Z,89.36
2023-01-04T11:20:13.798Z,89.64
2023-01-04T11:24:34.393Z,90.10
2023-01-04T11:28:42.055Z,90.50
2023-01-04T11:32:50.742Z,89.87
2023-01-04T11:36:55.245Z,90.13
2023-01-04T11:41:00.873Z,90.35
2023-01-04T11:45:04.373Z,90.39
2023-01-04T11:49:20.534Z,90.34
2023-01-04T11:53:27.841Z,90.51
2023-01-04T11:57:30.873Z,90.64
2023-01-04T12:01:36.565Z,90.85
2023-01-04T12:05:39.693Z,91.12
2023-01-04T12:09:44.117Z,91.40
2023-01-04T12:13:47.356Z,91.21
2023-01-04T12:17:56.606Z,91.44
2023-01-04T12:22:02.247Z,91.62
2023-01-04T12:26:08.760Z,91.85
2023-01-04T12:30:36.198Z,91.39
2023-01-04T12:34:44.048Z,91.46
2023-01-04T12:39:05.771Z,91.60
2023-01-04T12:43:27.822Z,91.52
2023-01-04T12:47:59.090Z,91.03
2023-01-04T12:52:54.731Z,91.20
2023-01-04T12:57:36.867Z,90.97
2023-01-04T13:02:19.106Z,90.69
2023-01-04T13:06:24.886Z,90.84
2023-01-04T13:10:34.183Z,90.78
2023-01-04T13:14:43.425Z,91.07
2023-01-04T13:18:50.525Z,90.98
2023-01-04T13:22:55.938Z,91.01
2023-01-04T13:27:07.008Z,91.08
2023-01-04T13:31:10.200Z,90.79
2023-01-04T13:35:15.918Z,90.72
2023-01-04T13:39:20.442Z,90.57
2023-01-04T13:43:46.306Z,90.29
2023-01-04T13:47:52.918Z,90.48
2023-01-04T13:52:06.488Z,90.40
2023-01-04T13:56:22.581Z,90.39
2023-01-04T14:00:27.985Z,90.43
2023-01-04T14:04:33.811Z,90.23
2023-01-04T14:08:42.801Z,90.06
2023-01-04T14:12:47.657Z,89.92
2023-01-04T14:16:52.088Z,90.32
2023-01-04T14:20:55.292Z,90.25
2023-01-04T14:25:09.857Z,90.56
2023-01-04T14:29:22.884Z,90.46
2023-01-04T14:33:31.967Z,89.90
2023-01-04T14:37:35.912Z,89.82
2023-01-04T14:41:42.862Z,90.18
2023-01-04T14:45:45.871Z,90.12
2023-01-04T14:49:48.902Z,90.36
2023-01-04T14:53:52.165Z,90.37
2023-01-04T14:57:56.751Z,90.02
2023-01-04T15:01:59.874Z,90.26
2023-01-04T15:06:03.177Z,90.23
2023-01-04T15:10:16.809Z,90.42
2023-01-04T15:14:21.573Z,90.28
2023-01-04T15:18:24.692Z,90.05
2023-01-04T15:22:27.679Z,90.15
2023-01-04T15:26:31.079Z,89.72
2023-01-04T15:30:35.835Z,90.11
2023-01-04T15:34:44.857Z,90.39
2023-01-04T15:38:50.033Z,90.67
2023-01-04T15:43:01.875Z,90.38
2023-01-04T15:47:06.361Z,90.54
2023-01-04T15:51:10.422Z,90.85
2023-01-04T15:55:14.268Z,90.79
2023-01-04T15:59:17.259Z,91.43
2023-01-04T16:03:21.712Z,91.01
2023-01-04T16:07:24.845Z,91.74
2023-01-04T16:11:28.265Z,91.85
2023-01-04T16:15:31.308Z,91.71
2023-01-04T16:19:35.677Z,92.21
2023-01-04T16:23:39.011Z,92.17
2023-01-04T16:27:43.946Z,92.33
2023-01-04T16:31:47.018Z,92.57
2023-01-04T16:35:57.357Z,92.83
2023-01-04T16:40:09.125Z,92.92
2023-01-04T16:44:13.559Z,92.96
2023-01-04T16:48:18.624Z,92.80
2023-01-04T16:52:27.205Z,92.80
2023-01-04T16:56:30.681Z,92.87
2023-01-04T17:00:33.759Z,92.59
2023-01-04T17:04:37.110Z,92.92
2023-01-04T17:08:41.645Z,92.86
2023-01-04T17:12:47.594Z,92.62
2023-01-04T17:16:51.810Z,92.90
2023-01-04T17:21:11.093Z,93.15
2023-01-04T17:25:20.835Z,92.74
2023-01-04T17:29:23.887Z,92.84
2023-01-04T17:33:26.907Z,93.08
2023-01-04T17:37:30.147Z,92.90
2023-01-04T17:41:34.535Z,92.89
2023-01-04T17:45:37.725Z,92.85
2023-01-04T17:49:40.737Z,92.63
2023-01-04T17:53:45.215Z,93.09
2023-01-04T17:57:49.700Z,92.78
2023-01-04T18:01:52.890Z,92.77
2023-01-04T18:06:07.102Z,92.60
2023-01-04T18:10:27.108Z,92.69
2023-01-04T18:14:37.784Z,92.85
2023-01-04T18:18:41.270Z,92.66
2023-01-04T18:22:44.556Z,92.22
2023-01-04T18:27:20.007Z,92.24
2023-01-04T18:31:15.569Z,91.75
2023-01-04T18:35:19.063Z,91.42
2023-01-04T18:39:22.689Z,91.02
2023-01-04T18:43:25.927Z,91.20
2023-01-04T18:47:31.622Z,91.08
2023-01-04T18:51:34.795Z,91.28
2023-01-04T18:55:39.258Z,91.29
2023-01-04T18:59:42.854Z,91.12
2023-01-04T19:03:49.121Z,91.05
2023-01-04T19:07:52.229Z,90.78
2023-01-04T19:11:55.245Z,90.66
2023-01-04T19:15:58.958Z,90.84
2023-01-04T19:20:03.807Z,91.16
2023-01-04T19:24:07.488Z,91.01
2023-01-04T19:28:12.452Z,90.87
2023-01-04T19:32:19.168Z,91.14
2023-01-04T19:36:23.794Z,91.04
2023-01-04T19:40:27.753Z,90.71
2023-01-04T19:44:31.289Z,90.62
2023-01-04T19:48:34.335Z,90.09
2023-01-04T19:52:39.590Z,90.51
2023-01-04T19:56:42.714Z,90.21
2023-01-04T20:00:54.283Z,89.83
2023-01-04T20:04:58.024Z,89.77
2023-01-04T20:09:02.385Z,89.43
2023-01-04T20:13:05.441Z,88.86
2023-01-04T20:17:08.600Z,87.45
2023-01-04T20:21:15.252Z,85.36
2023-01-04T20:25:19.696Z,83.94
2023-01-04T20:29:22.745Z,82.14
2023-01-04T20:33:25.788Z,80.41
2023-01-04T20:37:28.785Z,78.03
2023-01-04T20:41:33.695Z,77.51
2023-01-04T20:45:41.572Z,76.15
2023-01-04T20:49:44.703Z,75.27
2023-01-04T20:53:47.899Z,74.73
2023-01-04T20:57:52.339Z,73.16
2023-01-04T21:01:55.480Z,73.26
2023-01-04T21:06:02.749Z,73.21
2023-01-04T21:10:06.404Z,73.74
2023-01-04T21:14:12.105Z,73.43
2023-01-04T21:18:15.484Z,73.24
2023-01-04T21:22:18.548Z,73.13
2023-01-04T21:26:22.858Z,72.48
2023-01-04T21:30:27.287Z,71.78
2023-01-04T21:34:31.623Z,71.84
2023-01-04T21:38:34.732Z,71.13
2023-01-04T21:42:37.789Z,71.33
2023-01-04T21:46:42.213Z,70.92
2023-01-04T21:50:45.404Z,70.94
2023-01-04T21:54:48.649Z,69.46
2023-01-04T21:58:51.935Z,69.70
2023-01-04T22:02:56.563Z,69.36
2023-01-04T22:07:00.048Z,69.13
2023-01-04T22:11:04.530Z,69.34
2023-01-04T22:15:29.360Z,68.37
2023-01-04T22:19:33.799Z,68.60
2023-01-04T22:23:36.896Z,68.47
2023-01-04T22:27:40.159Z,68.51
2023-01-04T22:31:43.733Z,68.05
2023-01-04T22:35:48.170Z,68.24
2023-01-04T22:39:51.167Z,67.83
2023-01-04T22:43:58.166Z,67.88
2023-01-04T22:48:01.680Z,66.82
2023-01-04T22:52:06.249Z,66.63
2023-01-04T22:56:19.474Z,65.60
2023-01-04T23:00:23.156Z,66.93
2023-01-04T23:04:28.433Z,66.60
2023-01-04T23:08:33.115Z,65.55
2023-01-04T23:12:36.185Z,65.56
2023-01-04T23:16:39.503Z,65.67
2023-01-04T23:20:42.556Z,66.29
2023-01-04T23:24:46.984Z,66.50
2023-01-04T23:28:51.207Z,67.30
2023-01-04T23:32:54.350Z,67.72
2023-01-04T23:36:57.558Z,68.18
2023-01-04T23:41:02.054Z,68.74
2023-01-04T23:45:05.761Z,69.17
2023-01-04T23:49:08.780Z,68.94
2023-01-04T23:53:11.921Z,69.83
2023-01-04T23:57:19.304Z,70.39
